createdAt,value
2019-01-16T00:04:43.370Z,7.46
2019-01-16T00:10:17.732Z,7.42
2019-01-16T00:15:42.568Z,7.43
2019-01-16T00:20:53.556Z,7.40
2019-01-16T00:26:09.363Z,7.37
2019-01-16T00:31:30.595Z,7.38
2019-01-16T00:36:55.617Z,7.35
2019-01-16T00:42:24.023Z,7.35
2019-01-16T00:47:44.851Z,7.33
2019-01-16T00:53:05.428Z,7.26
2019-01-16T00:58:45.308Z,7.34
2019-01-16T01:04:13.443Z,7.25
2019-01-16T01:09:34.255Z,7.33
2019-01-16T01:14:58.653Z,7.27
2019-01-16T01:20:21.219Z,7.29
2019-01-16T01:25:41.474Z,7.28
2019-01-16T01:31:05.948Z,7.23
2019-01-16T01:36:28.510Z,7.12
2019-01-16T01:41:50.871Z,7.23
2019-01-16T01:47:01.640Z,7.25
2019-01-16T01:52:29.660Z,7.19
2019-01-16T01:57:58.955Z,7.25
2019-01-16T02:03:23.514Z,7.20
2019-01-16T02:08:44.396Z,7.15
2019-01-16T02:13:54.663Z,7.13
2019-01-16T02:19:09.749Z,7.02
2019-01-16T02:24:44.302Z,7.00
2019-01-16T02:30:05.540Z,7.06
2019-01-16T02:35:31.690Z,7.07
2019-01-16T02:41:02.637Z,6.98
2019-01-16T02:46:23.871Z,7.03
2019-01-16T02:52:03.622Z,7.04
2019-01-16T02:57:40.540Z,6.99
2019-01-16T03:02:55.063Z,7.09
2019-01-16T03:08:23.514Z,7.04
2019-01-16T03:13:39.830Z,7.07
2019-01-16T03:19:04.599Z,7.10
2019-01-16T03:24:27.247Z,7.07
2019-01-16T03:29:49.560Z,7.05
2019-01-16T03:35:10.597Z,7.02
2019-01-16T03:40:25.177Z,7.20
2019-01-16T03:45:35.459Z,7.06
2019-01-16T03:50:47.268Z,7.06
2019-01-16T03:56:06.853Z,7.13
2019-01-16T04:01:38.133Z,7.11
2019-01-16T04:07:07.138Z,7.14
2019-01-16T04:12:25.519Z,6.95
2019-01-16T04:17:46.345Z,7.06
2019-01-16T04:23:11.371Z,6.99
2019-01-16T04:28:32.043Z,7.01
2019-01-16T04:33:52.715Z,7.09
2019-01-16T04:39:06.872Z,7.10
2019-01-16T04:44:35.059Z,7.12
2019-01-16T04:49:48.512Z,7.15
2019-01-16T04:55:16.203Z,7.22
2019-01-16T05:00:36.268Z,7.13
2019-01-16T05:05:52.529Z,7.09
2019-01-16T05:11:02.835Z,7.15
2019-01-16T05:16:24.222Z,7.08
2019-01-16T05:21:55.399Z,7.16
2019-01-16T05:27:16.015Z,7.07
2019-01-16T05:32:37.438Z,7.04
2019-01-16T05:37:56.382Z,7.04
2019-01-16T05:43:13.141Z,7.31
2019-01-16T05:48:47.501Z,7.16
2019-01-16T05:54:10.266Z,7.16
2019-01-16T05:59:35.232Z,7.15
2019-01-16T06:04:52.417Z,7.22
2019-01-16T06:10:26.358Z,7.25
2019-01-16T06:15:43.183Z,7.18
2019-01-16T06:21:04.056Z,7.16
2019-01-16T06:26:15.300Z,7.25
2019-01-16T06:31:31.513Z,7.32
2019-01-16T06:36:46.455Z,7.34
2019-01-16T06:42:01.549Z,7.35
2019-01-16T06:47:32.547Z,7.34
2019-01-16T06:52:57.669Z,7.42
2019-01-16T06:58:13.425Z,7.43
2019-01-16T07:03:45.566Z,7.50
2019-01-16T07:08:56.767Z,7.41
2019-01-16T07:14:16.780Z,7.47
2019-01-16T07:19:33.284Z,7.47
2019-01-16T07:24:55.847Z,7.48
2019-01-16T07:30:07.867Z,7.38
2019-01-16T07:35:20.288Z,7.61
2019-01-16T07:40:51.355Z,7.56
2019-01-16T07:46:14.944Z,7.47
2019-01-16T07:51:46.209Z,7.55
2019-01-16T07:57:00.697Z,7.50
2019-01-16T08:02:23.864Z,7.54
2019-01-16T08:08:01.091Z,7.64
2019-01-16T08:13:35.713Z,7.63
2019-01-16T08:18:57.055Z,7.61
2019-01-16T08:24:15.721Z,7.74
2019-01-16T08:29:46.887Z,7.71
2019-01-16T08:34:59.822Z,7.78
2019-01-16T08:40:27.843Z,7.67
2019-01-16T08:45:41.982Z,7.75
2019-01-16T08:51:15.931Z,7.75
2019-01-16T08:56:42.273Z,7.77
2019-01-16T09:02:02.779Z,7.70
2019-01-16T09:07:25.361Z,7.73
2019-01-16T09:12:46.584Z,7.66
2019-01-16T09:17:57.015Z,7.78
2019-01-16T09:23:17.776Z,7.66
2019-01-16T09:28:42.906Z,7.88
2019-01-16T09:34:10.894Z,7.84
2019-01-16T09:39:36.174Z,7.83
2019-01-16T09:44:51.000Z,7.79
2019-01-16T09:50:28.017Z,7.88
2019-01-16T09:56:04.528Z,7.95
2019-01-16T10:01:24.897Z,7.86
2019-01-16T10:06:36.519Z,8.02
2019-01-16T10:11:56.011Z,7.98
2019-01-16T10:17:33.219Z,7.99
2019-01-16T10:22:47.383Z,8.01
2019-01-16T10:28:12.087Z,7.97
2019-01-16T10:33:32.683Z,7.98
2019-01-16T10:39:07.267Z,7.88
2019-01-16T10:44:35.446Z,7.96
2019-01-16T10:49:57.715Z,7.95
2019-01-16T10:55:09.657Z,7.93
2019-01-16T11:00:28.852Z,7.96
2019-01-16T11:05:50.972Z,7.90
2019-01-16T11:11:16.198Z,7.77
2019-01-16T11:16:30.254Z,7.90
2019-01-16T11:21:51.383Z,7.78
2019-01-16T11:27:22.957Z,7.77
2019-01-16T11:32:34.877Z,7.59
2019-01-16T11:37:50.986Z,7.40
2019-01-16T11:43:09.225Z,7.38
2019-01-16T11:48:25.011Z,7.35
2019-01-16T11:53:40.264Z,7.37
2019-01-16T11:59:01.172Z,7.49
2019-01-16T12:04:22.716Z,7.31
2019-01-16T12:09:43.742Z,7.34
2019-01-16T12:15:04.462Z,7.38
2019-01-16T12:20:20.476Z,7.33
2019-01-16T12:25:41.810Z,7.31
2019-01-16T12:31:10.511Z,7.36
2019-01-16T12:36:27.864Z,7.35
2019-01-16T12:41:43.557Z,7.23
2019-01-16T12:47:03.856Z,7.29
2019-01-16T12:52:22.333Z,7.36
2019-01-16T12:57:36.311Z,7.38
2019-01-16T13:02:48.413Z,7.37
2019-01-16T13:08:28.498Z,7.36
2019-01-16T13:13:59.356Z,7.28
2019-01-16T13:19:26.578Z,7.23
2019-01-16T13:24:46.586Z,7.15
2019-01-16T13:30:06.733Z,7.19
2019-01-16T13:35:25.511Z,7.22
2019-01-16T13:40:46.747Z,7.15
2019-01-16T13:46:05.826Z,7.24
2019-01-16T13:51:24.191Z,7.16
2019-01-16T13:56:46.343Z,7.24
2019-01-16T14:02:02.760Z,7.17
2019-01-16T14:07:21.749Z,7.24
2019-01-16T14:12:39.703Z,7.10
2019-01-16T14:18:00.928Z,7.10
2019-01-16T14:23:16.117Z,7.20
2019-01-16T14:28:40.506Z,7.19
2019-01-16T14:34:02.328Z,7.10
2019-01-16T14:39:25.205Z,7.14
2019-01-16T14:44:47.809Z,6.96
2019-01-16T14:49:58.906Z,6.93
2019-01-16T14:55:13.941Z,6.95
2019-01-16T15:00:48.032Z,7.00
2019-01-16T15:05:59.020Z,6.88
2019-01-16T15:11:19.936Z,6.84
2019-01-16T15:16:45.074Z,6.84
2019-01-16T15:21:59.432Z,6.84
2019-01-16T15:27:22.000Z,6.80
2019-01-16T15:32:42.541Z,6.73
2019-01-16T15:38:04.513Z,6.62
2019-01-16T15:43:23.550Z,6.57
2019-01-16T15:48:38.345Z,6.51
2019-01-16T15:53:59.229Z,6.64
2019-01-16T15:59:27.115Z,6.54
2019-01-16T16:04:49.703Z,6.51
2019-01-16T16:10:18.521Z,6.43
2019-01-16T16:15:42.825Z,6.47
2019-01-16T16:21:03.650Z,6.35
2019-01-16T16:26:20.070Z,6.39
2019-01-16T16:31:34.292Z,6.34
2019-01-16T16:36:55.480Z,6.23
2019-01-16T16:42:18.529Z,6.32
2019-01-16T16:47:40.100Z,6.32
2019-01-16T16:53:22.231Z,6.49
2019-01-16T16:59:04.643Z,6.29
2019-01-16T17:04:38.580Z,6.30
2019-01-16T17:10:11.588Z,6.15
2019-01-16T17:15:47.783Z,6.01
2019-01-16T17:21:03.394Z,6.05
2019-01-16T17:26:34.182Z,6.03
2019-01-16T17:31:59.296Z,5.91
2019-01-16T17:37:26.063Z,6.06
2019-01-16T17:42:50.508Z,6.04
2019-01-16T17:48:08.632Z,5.94
2019-01-16T17:53:29.324Z,5.88
2019-01-16T17:58:51.053Z,5.88
2019-01-16T18:04:06.772Z,5.79
2019-01-16T18:09:28.897Z,5.73
2019-01-16T18:14:48.292Z,5.75
2019-01-16T18:20:21.288Z,5.83
2019-01-16T18:25:43.661Z,5.79
2019-01-16T18:31:14.433Z,5.80
2019-01-16T18:36:45.985Z,5.75
2019-01-16T18:42:08.655Z,5.71
2019-01-16T18:47:26.512Z,5.65
2019-01-16T18:52:55.546Z,5.60
2019-01-16T18:58:42.035Z,5.66
2019-01-16T19:04:08.124Z,5.50
2019-01-16T19:09:32.723Z,5.52
2019-01-16T19:14:43.537Z,5.46
2019-01-16T19:20:04.641Z,5.49
2019-01-16T19:25:19.605Z,5.52
2019-01-16T19:30:51.096Z,5.51
2019-01-16T19:36:06.704Z,5.44
2019-01-16T19:41:28.820Z,5.42
2019-01-16T19:47:04.204Z,5.39
2019-01-16T19:52:19.787Z,5.43
2019-01-16T19:57:53.395Z,5.43
2019-01-16T20:03:20.959Z,5.34
2019-01-16T20:08:44.173Z,5.35
2019-01-16T20:14:02.994Z,5.38
2019-01-16T20:19:27.929Z,5.41
2019-01-16T20:24:53.377Z,5.27
2019-01-16T20:30:18.148Z,5.27
2019-01-16T20:35:45.728Z,5.24
2019-01-16T20:41:05.016Z,5.27
2019-01-16T20:46:44.327Z,5.21
2019-01-16T20:52:20.261Z,5.12
2019-01-16T20:57:46.943Z,5.20
2019-01-16T21:03:08.221Z,5.18
2019-01-16T21:08:49.434Z,5.21
2019-01-16T21:14:02.986Z,5.12
2019-01-16T21:19:25.098Z,5.05
2019-01-16T21:24:51.410Z,5.01
2019-01-16T21:30:15.025Z,5.09
2019-01-16T21:35:45.705Z,4.93
2019-01-16T21:41:06.439Z,5.00
2019-01-16T21:46:28.386Z,4.94
2019-01-16T21:51:42.260Z,4.98
2019-01-16T21:57:03.255Z,4.95
2019-01-16T22:02:22.970Z,4.84
2019-01-16T22:07:41.899Z,4.93
2019-01-16T22:13:02.876Z,4.90
2019-01-16T22:18:20.894Z,4.87
2019-01-16T22:23:47.002Z,4.70
2019-01-16T22:29:06.123Z,4.77
2019-01-16T22:34:22.346Z,4.88
2019-01-16T22:39:52.476Z,4.79
2019-01-16T22:45:20.337Z,4.84
2019-01-16T22:50:38.402Z,4.91
2019-01-16T22:56:10.165Z,4.92
2019-01-16T23:01:42.542Z,4.85
2019-01-16T23:07:02.242Z,4.88
2019-01-16T23:12:23.471Z,4.90
2019-01-16T23:17:48.587Z,4.97
2019-01-16T23:22:59.085Z,4.94
2019-01-16T23:28:19.800Z,4.86
2019-01-16T23:33:51.172Z,4.91
2019-01-16T23:39:16.702Z,4.98
2019-01-16T23:44:31.164Z,5.12
2019-01-16T23:49:59.785Z,5.11
2019-01-16T23:55:22.048Z,4.85
